Time;durP1;ratioP1;P1;durP2;ratioP2;P2;SDS_P1;SDS_P2;PMS_P1;PMS_P2;Temp;Humidity;BMP_temperature;BMP_pressure;BME280_temperature;BME280_humidity;BME280_pressure;Samples;Min_cycle;Max_cycle;Signal;HPM_P1;HPM_P2
2022/01/09 00:00:06;;;;;;;3.63;2.63;;;18.60;53.30;;;;;;5111376;28;20200;-84
2022/01/09 00:02:32;;;;;;;3.53;2.30;;;18.60;53.40;;;;;;5096127;28;20156;-83
2022/01/09 00:04:59;;;;;;;3.10;2.40;;;18.60;53.30;;;;;;5097200;28;20517;-81
2022/01/09 00:07:24;;;;;;;2.72;2.20;;;18.60;53.30;;;;;;5113075;28;20164;-81
2022/01/09 00:09:50;;;;;;;3.63;2.50;;;18.60;53.30;;;;;;5112700;28;20519;-84
2022/01/09 00:12:16;;;;;;;4.05;2.58;;;18.50;53.30;;;;;;5113020;28;20184;-84
2022/01/09 00:14:41;;;;;;;3.67;2.60;;;18.50;53.40;;;;;;5112845;28;20165;-84
2022/01/09 00:17:08;;;;;;;3.83;2.35;;;18.50;53.40;;;;;;5097050;28;20551;-81
2022/01/09 00:19:34;;;;;;;3.67;2.30;;;18.50;53.30;;;;;;5095711;28;20161;-82
2022/01/09 00:22:02;;;;;;;2.83;2.10;;;18.60;53.40;;;;;;5095992;28;20546;-84
2022/01/09 00:24:27;;;;;;;3.58;2.70;;;18.40;53.50;;;;;;5095879;28;20976;-80
2022/01/09 00:26:53;;;;;;;3.25;2.35;;;18.50;53.40;;;;;;5095598;28;20207;-81
2022/01/09 00:29:23;;;;;;;3.72;2.17;;;18.50;53.30;;;;;;5095324;28;20149;-84
2022/01/09 00:31:48;;;;;;;2.97;2.38;;;18.50;53.30;;;;;;5096844;28;20153;-81
2022/01/09 00:34:14;;;;;;;2.35;2.10;;;18.50;53.30;;;;;;5095670;28;20666;-83
2022/01/09 00:36:40;;;;;;;4.05;2.22;;;18.50;53.40;;;;;;5096635;28;20153;-84
2022/01/09 00:39:07;;;;;;;3.25;2.58;;;18.50;53.50;;;;;;5112604;27;20646;-84
2022/01/09 00:41:33;;;;;;;3.78;2.40;;;18.50;53.50;;;;;;5095549;28;20235;-85
2022/01/09 00:43:59;;;;;;;2.88;2.03;;;18.40;53.50;;;;;;5095646;28;20568;-82
2022/01/09 00:46:24;;;;;;;2.85;2.25;;;18.40;53.40;;;;;;5096432;28;20184;-84
2022/01/09 00:48:50;;;;;;;4.57;2.50;;;18.50;53.50;;;;;;5095533;28;20179;-84
2022/01/09 00:51:16;;;;;;;2.83;2.30;;;18.40;53.40;;;;;;5096329;28;20157;-85
2022/01/09 00:53:41;;;;;;;3.63;2.45;;;18.50;53.40;;;;;;5112597;27;20157;-83
2022/01/09 00:56:07;;;;;;;2.60;2.40;;;18.40;53.40;;;;;;5112357;28;20160;-82
2022/01/09 00:58:33;;;;;;;3.63;2.30;;;18.40;53.40;;;;;;5111170;28;20219;-84
2022/01/09 01:00:59;;;;;;;3.03;2.10;;;18.50;53.40;;;;;;5117069;28;20184;-84
2022/01/09 01:03:25;;;;;;;3.50;2.40;;;18.40;53.50;;;;;;5115652;28;20189;-81
2022/01/09 01:05:51;;;;;;;3.38;2.47;;;18.50;53.50;;;;;;5098322;28;20650;-81
2022/01/09 01:08:17;;;;;;;3.22;2.33;;;18.40;53.50;;;;;;5116435;28;20234;-82
2022/01/09 01:10:42;;;;;;;3.55;2.55;;;18.50;53.50;;;;;;5097954;28;20163;-82
2022/01/09 01:13:09;;;;;;;4.45;2.33;;;18.40;53.40;;;;;;5116552;28;20160;-83
2022/01/09 01:15:35;;;;;;;3.70;2.50;;;18.40;53.40;;;;;;5098317;28;20186;-82
2022/01/09 01:18:01;;;;;;;3.55;2.70;;;18.40;53.40;;;;;;5098194;28;20157;-82
2022/01/09 01:20:28;;;;;;;3.63;2.50;;;18.40;53.40;;;;;;5097857;28;20243;-85
2022/01/09 01:22:57;;;;;;;2.95;2.20;;;18.40;53.50;;;;;;5114582;28;20169;-83
2022/01/09 01:25:23;;;;;;;3.38;2.47;;;18.40;53.50;;;;;;5116235;28;20178;-84
2022/01/09 01:27:49;;;;;;;2.92;2.22;;;18.40;53.30;;;;;;5116429;28;20152;-82
2022/01/09 01:30:14;;;;;;;2.95;2.20;;;18.40;53.60;;;;;;5097657;28;20235;-83
2022/01/09 01:32:40;;;;;;;3.47;2.60;;;18.30;53.60;;;;;;5097923;28;20209;-81
2022/01/09 01:35:07;;;;;;;3.75;2.50;;;18.40;53.40;;;;;;5097616;28;20202;-84
2022/01/09 01:37:34;;;;;;;2.88;2.35;;;18.40;53.50;;;;;;5097706;28;20229;-82
2022/01/09 01:39:59;;;;;;;3.25;2.30;;;18.40;53.50;;;;;;5097704;28;20155;-83
2022/01/09 01:42:25;;;;;;;3.53;2.80;;;18.40;53.50;;;;;;5115855;28;20192;-81
2022/01/09 01:44:51;;;;;;;4.13;2.60;;;18.40;53.50;;;;;;5097465;28;20163;-83
2022/01/09 01:47:18;;;;;;;2.65;2.38;;;18.40;53.40;;;;;;5115661;28;20159;-83
2022/01/09 01:49:46;;;;;;;5.35;2.42;;;18.40;53.50;;;;;;5114771;28;20534;-83
2022/01/09 01:52:11;;;;;;;2.97;2.20;;;18.40;53.60;;;;;;5115559;28;20152;-82
2022/01/09 01:54:39;;;;;;;2.83;2.30;;;18.30;53.60;;;;;;5097309;28;20521;-83
2022/01/09 01:57:05;;;;;;;3.92;2.63;;;18.30;53.60;;;;;;5112669;28;20584;-84
2022/01/09 01:59:30;;;;;;;3.20;2.53;;;18.40;53.70;;;;;;5076883;28;20615;-82
2022/01/09 02:01:56;;;;;;;2.40;2.15;;;18.20;53.60;;;;;;5076720;28;20195;-83
2022/01/09 02:04:22;;;;;;;3.75;2.40;;;18.30;53.70;;;;;;5077598;28;20196;-82
2022/01/09 02:06:47;;;;;;;3.63;2.50;;;18.30;53.60;;;;;;5095094;28;20153;-83
2022/01/09 02:09:13;;;;;;;2.97;2.35;;;18.30;53.70;;;;;;5076705;28;20163;-81
2022/01/09 02:11:39;;;;;;;3.25;2.33;;;18.30;53.70;;;;;;5076878;28;20525;-82
2022/01/09 02:14:04;;;;;;;4.07;2.53;;;18.30;53.70;;;;;;5076487;28;20160;-82
2022/01/09 02:16:30;;;;;;;3.85;2.50;;;18.30;53.90;;;;;;5060164;28;20172;-83
2022/01/09 02:18:58;;;;;;;2.88;2.30;;;18.30;53.60;;;;;;5077153;28;20168;-84
2022/01/09 02:21:26;;;;;;;3.63;2.42;;;18.30;53.70;;;;;;5076346;28;20196;-84
2022/01/09 02:23:52;;;;;;;3.88;2.35;;;18.20;53.90;;;;;;5076590;28;20160;-83
2022/01/09 02:26:19;;;;;;;3.25;2.50;;;18.30;53.90;;;;;;5093194;28;20242;-82
2022/01/09 02:28:46;;;;;;;4.10;2.63;;;18.30;53.70;;;;;;5076857;28;20171;-83
2022/01/09 02:31:12;;;;;;;2.78;2.13;;;18.30;53.90;;;;;;5076582;28;20171;-83
2022/01/09 02:33:37;;;;;;;4.10;2.60;;;18.30;53.70;;;;;;5076523;28;20244;-82
2022/01/09 02:36:03;;;;;;;4.38;2.17;;;18.30;53.80;;;;;;5094447;28;20512;-81
2022/01/09 02:38:30;;;;;;;3.28;2.22;;;18.20;53.70;;;;;;5076038;28;20206;-83
2022/01/09 02:40:56;;;;;;;3.00;2.50;;;18.30;53.70;;;;;;5076201;28;20268;-83
2022/01/09 02:43:23;;;;;;;4.30;2.38;;;18.30;53.70;;;;;;5076352;28;20184;-82
2022/01/09 02:46:01;;;;;;;3.47;2.38;;;18.20;53.90;;;;;;5094295;28;20156;-81
2022/01/09 02:48:33;;;;;;;3.67;2.60;;;18.20;53.70;;;;;;5094603;28;20158;-84
2022/01/09 02:51:09;;;;;;;4.88;2.72;;;18.30;53.90;;;;;;5077040;28;20236;-83
2022/01/09 02:53:36;;;;;;;3.28;2.55;;;18.20;53.80;;;;;;5092724;28;20201;-81
2022/01/09 02:56:03;;;;;;;2.85;2.08;;;18.20;53.90;;;;;;5076330;28;20149;-82
2022/01/09 02:58:29;;;;;;;3.38;2.00;;;18.30;53.80;;;;;;5076094;28;20216;-82
2022/01/09 03:00:55;;;;;;;2.97;2.53;;;18.20;53.90;;;;;;5075896;28;20685;-83
2022/01/09 03:03:21;;;;;;;3.20;2.40;;;18.20;53.90;;;;;;5075993;28;20173;-82
2022/01/09 03:05:47;;;;;;;2.80;2.35;;;18.20;53.80;;;;;;5075926;28;20688;-84
2022/01/09 03:08:13;;;;;;;3.42;2.67;;;18.20;53.80;;;;;;5094185;28;20157;-82
2022/01/09 03:10:39;;;;;;;3.65;2.70;;;18.20;53.90;;;;;;5075999;28;20148;-83
2022/01/09 03:13:06;;;;;;;3.65;2.40;;;18.20;53.80;;;;;;5094175;28;20157;-85
2022/01/09 03:15:33;;;;;;;3.70;2.40;;;18.20;53.90;;;;;;5075616;28;20161;-81
2022/01/09 03:17:59;;;;;;;3.00;2.40;;;18.20;53.90;;;;;;5075698;28;20164;-82
2022/01/09 03:20:25;;;;;;;3.75;2.55;;;18.20;53.90;;;;;;5058733;28;20193;-85
2022/01/09 03:22:51;;;;;;;3.35;2.60;;;18.20;53.90;;;;;;5076098;28;20196;-82
2022/01/09 03:25:17;;;;;;;3.03;2.38;;;18.20;53.90;;;;;;5075506;28;20192;-82
2022/01/09 03:27:46;;;;;;;3.00;2.40;;;18.20;53.90;;;;;;5093596;28;20160;-82
2022/01/09 03:30:12;;;;;;;2.88;2.28;;;18.10;53.90;;;;;;5058940;28;20195;-81
2022/01/09 03:32:40;;;;;;;3.42;2.60;;;18.20;53.80;;;;;;5076099;28;20168;-84
2022/01/09 03:35:07;;;;;;;3.92;2.70;;;18.20;54.00;;;;;;5079412;28;20237;-81
2022/01/09 03:37:33;;;;;;;3.80;2.65;;;18.20;53.90;;;;;;5079667;28;20157;-81
2022/01/09 03:39:59;;;;;;;4.45;2.40;;;18.20;53.90;;;;;;5079806;28;20631;-83
2022/01/09 03:42:26;;;;;;;2.67;2.28;;;18.20;53.90;;;;;;5079272;28;20293;-82
2022/01/09 03:44:56;;;;;;;3.42;2.55;;;18.20;53.90;;;;;;5079317;28;20168;-82
2022/01/09 03:47:22;;;;;;;3.08;2.65;;;18.20;53.80;;;;;;5097561;28;20157;-83
2022/01/09 03:49:47;;;;;;;2.88;2.20;;;18.10;53.80;;;;;;5097484;28;20515;-85
2022/01/09 03:52:14;;;;;;;4.10;2.67;;;18.20;53.90;;;;;;5079419;28;20152;-84
2022/01/09 03:54:40;;;;;;;3.65;2.50;;;18.10;53.90;;;;;;5095905;28;20153;-81
2022/01/09 03:57:06;;;;;;;2.90;2.42;;;18.10;54.00;;;;;;5078956;28;20240;-81
2022/01/09 03:59:32;;;;;;;4.85;2.70;;;18.10;54.00;;;;;;5078954;28;20169;-81
2022/01/09 04:01:58;;;;;;;3.63;2.33;;;18.10;54.20;;;;;;5079049;28;20278;-84
2022/01/09 04:04:31;;;;;;;3.92;2.40;;;18.10;54.10;;;;;;5078881;28;20651;-83
2022/01/09 04:06:56;;;;;;;3.50;2.42;;;18.10;54.20;;;;;;5095728;28;20175;-83
2022/01/09 04:09:38;;;;;;;3.33;2.45;;;18.00;54.20;;;;;;5096992;28;20161;-83
2022/01/09 04:12:08;;;;;;;3.63;2.42;;;18.00;54.20;;;;;;5097247;28;20148;-82
2022/01/09 04:14:35;;;;;;;3.20;2.58;;;18.10;54.20;;;;;;5079075;28;20153;-83
2022/01/09 04:17:03;;;;;;;3.42;2.50;;;18.00;54.20;;;;;;5097074;28;20149;-81
2022/01/09 04:19:29;;;;;;;2.30;2.10;;;18.00;54.20;;;;;;5096688;28;20495;-84
2022/01/09 04:21:57;;;;;;;3.10;2.47;;;18.00;54.20;;;;;;5096649;28;20709;-85
2022/01/09 04:24:22;;;;;;;3.38;2.40;;;18.10;54.10;;;;;;5096695;28;20153;-82
2022/01/09 04:26:48;;;;;;;3.60;2.45;;;18.00;54.00;;;;;;5095370;28;20533;-84
2022/01/09 04:29:14;;;;;;;2.83;2.30;;;18.00;54.20;;;;;;5078533;28;20168;-85
2022/01/09 04:31:43;;;;;;;3.22;2.45;;;18.00;54.20;;;;;;5096921;28;20153;-81
2022/01/09 04:34:09;;;;;;;3.13;2.42;;;18.00;54.30;;;;;;5096575;28;20161;-84
2022/01/09 04:36:36;;;;;;;4.25;2.60;;;18.00;54.20;;;;;;5096304;28;20157;-82
2022/01/09 04:39:02;;;;;;;3.97;2.50;;;18.10;54.20;;;;;;5078251;28;20545;-84
2022/01/09 04:41:29;;;;;;;3.28;2.45;;;18.00;54.10;;;;;;5078174;28;20303;-84
2022/01/09 04:43:55;;;;;;;3.65;2.80;;;18.00;54.20;;;;;;5078385;28;20153;-84
2022/01/09 04:46:29;;;;;;;3.13;2.35;;;18.00;54.20;;;;;;5095321;28;20153;-82
2022/01/09 04:48:56;;;;;;;4.40;2.45;;;18.00;54.10;;;;;;5079463;28;20183;-84
2022/01/09 04:51:23;;;;;;;3.75;2.50;;;18.00;54.20;;;;;;5078310;28;20156;-84
2022/01/09 04:53:48;;;;;;;3.08;2.35;;;18.00;54.10;;;;;;5077928;28;20248;-82
2022/01/09 04:56:14;;;;;;;4.38;2.60;;;18.00;54.10;;;;;;5078223;28;20244;-81
2022/01/09 04:58:41;;;;;;;2.97;2.50;;;18.00;54.10;;;;;;5077822;28;20702;-83
2022/01/09 05:01:06;;;;;;;3.30;2.30;;;18.00;54.10;;;;;;5077622;28;20207;-85
2022/01/09 05:03:33;;;;;;;3.03;2.50;;;18.00;54.20;;;;;;5095873;28;20228;-81
2022/01/09 05:05:59;;;;;;;6.07;2.60;;;18.00;54.20;;;;;;5077669;28;20165;-85
2022/01/09 05:08:24;;;;;;;3.55;2.60;;;18.00;54.30;;;;;;5077920;28;20141;-81
2022/01/09 05:10:50;;;;;;;3.25;2.38;;;18.00;54.30;;;;;;5077666;28;20187;-81
2022/01/09 05:13:16;;;;;;;2.85;2.35;;;18.00;54.20;;;;;;5095636;28;20214;-84
2022/01/09 05:15:42;;;;;;;3.30;2.70;;;18.00;54.30;;;;;;5077722;28;20203;-84
2022/01/09 05:18:14;;;;;;;2.90;2.60;;;18.00;54.30;;;;;;5077764;28;20601;-84
2022/01/09 05:20:40;;;;;;;3.25;2.63;;;18.00;54.30;;;;;;5078226;28;20185;-81
2022/01/09 05:23:06;;;;;;;3.03;2.42;;;18.00;54.30;;;;;;5077490;28;20160;-82
2022/01/09 05:25:32;;;;;;;5.18;2.50;;;17.90;54.20;;;;;;5095655;28;20153;-85
2022/01/09 05:27:58;;;;;;;2.90;2.17;;;18.00;54.20;;;;;;5077435;28;20160;-81
2022/01/09 05:30:24;;;;;;;3.67;2.80;;;17.90;54.10;;;;;;5060778;28;20260;-85
2022/01/09 05:32:50;;;;;;;3.13;2.45;;;17.90;54.30;;;;;;5095285;28;20149;-82
2022/01/09 05:35:16;;;;;;;3.58;2.40;;;17.90;54.30;;;;;;5095356;28;20168;-83
2022/01/09 05:37:44;;;;;;;3.80;2.80;;;17.80;54.20;;;;;;5094986;28;20153;-82
2022/01/09 05:40:10;;;;;;;3.80;2.70;;;17.90;54.30;;;;;;5077373;28;20156;-84
2022/01/09 05:42:35;;;;;;;3.85;2.40;;;17.90;54.30;;;;;;5076905;28;20188;-84
2022/01/09 05:45:03;;;;;;;4.03;2.38;;;17.90;54.10;;;;;;5060649;28;20203;-83
2022/01/09 05:47:28;;;;;;;4.07;2.97;;;17.90;54.20;;;;;;5060325;28;20161;-82
2022/01/09 05:49:54;;;;;;;4.32;2.38;;;17.90;54.10;;;;;;5094918;28;20153;-80
2022/01/09 05:52:19;;;;;;;3.00;2.40;;;17.90;54.20;;;;;;5076665;28;20196;-83
2022/01/09 05:54:47;;;;;;;3.28;2.45;;;17.90;54.30;;;;;;5076970;28;20498;-82
2022/01/09 05:57:13;;;;;;;3.22;2.65;;;17.90;54.40;;;;;;5096666;28;20224;-84
2022/01/09 05:59:39;;;;;;;3.33;2.60;;;17.90;54.40;;;;;;5096805;28;20538;-82
2022/01/09 06:02:04;;;;;;;2.83;2.42;;;17.80;54.20;;;;;;5097083;28;20180;-81
2022/01/09 06:04:31;;;;;;;3.20;2.40;;;17.90;54.30;;;;;;5097153;28;20156;-81
2022/01/09 06:06:57;;;;;;;3.17;2.63;;;17.90;54.30;;;;;;5096782;28;20263;-85
2022/01/09 06:09:23;;;;;;;4.68;2.65;;;17.90;54.30;;;;;;5096795;28;20235;-81
2022/01/09 06:11:48;;;;;;;3.35;2.50;;;17.90;54.20;;;;;;5114403;28;20199;-84
2022/01/09 06:14:14;;;;;;;2.97;2.30;;;17.90;54.10;;;;;;5097955;28;20168;-85
2022/01/09 06:16:40;;;;;;;3.40;2.47;;;18.00;54.10;;;;;;5097675;28;20168;-81
2022/01/09 06:19:05;;;;;;;3.88;2.78;;;17.90;54.00;;;;;;5126366;27;20167;-81
2022/01/09 06:21:31;;;;;;;3.50;2.40;;;18.00;54.10;;;;;;5117992;27;20213;-83
2022/01/09 06:23:56;;;;;;;3.53;2.50;;;17.90;54.20;;;;;;5117911;27;20151;-82
2022/01/09 06:26:25;;;;;;;3.00;2.50;;;18.00;54.20;;;;;;5118052;27;20155;-83
2022/01/09 06:28:56;;;;;;;3.60;2.47;;;17.90;54.20;;;;;;5100678;27;20213;-81
2022/01/09 06:31:23;;;;;;;3.25;2.67;;;17.80;54.70;;;;;;5117359;27;20158;-84
2022/01/09 06:33:49;;;;;;;2.95;2.20;;;18.00;54.20;;;;;;5116513;27;20175;-84
2022/01/09 06:36:15;;;;;;;3.28;2.67;;;17.90;54.10;;;;;;5117065;27;20262;-82
2022/01/09 06:38:41;;;;;;;3.75;2.60;;;17.90;54.20;;;;;;5134966;27;20155;-81
2022/01/09 06:41:07;;;;;;;3.78;2.85;;;17.90;54.20;;;;;;5116664;27;20190;-81
2022/01/09 06:43:33;;;;;;;3.53;2.30;;;17.90;54.20;;;;;;5099860;27;20163;-82
2022/01/09 06:45:58;;;;;;;3.72;2.50;;;17.90;54.10;;;;;;5117412;27;20209;-84
2022/01/09 06:48:25;;;;;;;3.25;2.55;;;17.90;54.10;;;;;;5136101;27;20534;-84
2022/01/09 06:50:50;;;;;;;3.08;2.50;;;17.90;54.20;;;;;;5117910;27;20220;-81
2022/01/09 06:53:17;;;;;;;3.65;2.65;;;17.90;54.10;;;;;;5135408;27;20160;-81
2022/01/09 06:55:43;;;;;;;3.03;2.28;;;17.90;54.00;;;;;;5117927;27;20155;-85
2022/01/09 06:58:09;;;;;;;3.33;2.60;;;17.90;54.10;;;;;;5116814;27;20214;-81
2022/01/09 07:00:35;;;;;;;4.40;2.92;;;17.90;54.00;;;;;;5135605;27;20201;-84
2022/01/09 07:03:00;;;;;;;2.80;2.50;;;17.90;54.00;;;;;;5134444;27;20197;-84
2022/01/09 07:05:28;;;;;;;3.03;2.50;;;17.90;54.10;;;;;;5116149;28;20162;-82
2022/01/09 07:07:54;;;;;;;4.32;2.70;;;17.90;54.10;;;;;;5136173;27;20155;-84
2022/01/09 07:10:20;;;;;;;2.88;2.58;;;17.90;54.10;;;;;;5141337;27;20499;-82
2022/01/09 07:12:47;;;;;;;3.40;2.75;;;17.90;54.00;;;;;;5123294;27;20159;-80
2022/01/09 07:15:13;;;;;;;3.90;2.47;;;17.90;54.60;;;;;;5141743;27;20220;-84
2022/01/09 07:17:39;;;;;;;2.80;2.50;;;17.90;54.00;;;;;;5123643;27;20226;-84
2022/01/09 07:20:05;;;;;;;3.25;2.55;;;17.90;53.60;;;;;;5123909;27;20151;-84
2022/01/09 07:22:33;;;;;;;3.60;2.50;;;18.00;53.30;;;;;;5123569;27;20523;-81
2022/01/09 07:25:01;;;;;;;4.22;2.80;;;18.10;52.90;;;;;;5123414;27;20163;-80
2022/01/09 07:27:28;;;;;;;3.45;2.60;;;18.20;52.80;;;;;;5123604;27;20170;-82
2022/01/09 07:29:53;;;;;;;4.53;2.65;;;18.20;52.60;;;;;;5124021;27;20221;-84
2022/01/09 07:32:20;;;;;;;3.25;2.40;;;18.20;52.80;;;;;;5142345;27;20155;-84
2022/01/09 07:34:46;;;;;;;3.75;2.58;;;18.30;52.90;;;;;;5122831;27;20178;-81
2022/01/09 07:37:11;;;;;;;3.85;2.55;;;18.30;52.40;;;;;;5124997;27;20159;-82
2022/01/09 07:39:37;;;;;;;6.18;2.58;;;18.40;52.50;;;;;;5123074;27;20245;-82
2022/01/09 07:42:04;;;;;;;3.10;2.50;;;18.40;52.70;;;;;;5123967;27;20175;-83
2022/01/09 07:44:30;;;;;;;3.60;2.47;;;18.30;52.50;;;;;;5105780;27;20187;-82
2022/01/09 07:46:59;;;;;;;3.30;2.50;;;18.40;52.30;;;;;;5125985;27;20187;-81
2022/01/09 07:49:25;;;;;;;3.47;2.30;;;18.40;52.00;;;;;;5066258;28;20180;-81
2022/01/09 07:51:51;;;;;;;4.05;2.70;;;18.40;52.10;;;;;;5063305;28;20715;-83
2022/01/09 07:54:17;;;;;;;3.55;2.70;;;18.50;52.20;;;;;;5062758;28;20200;-81
2022/01/09 07:56:42;;;;;;;3.95;2.40;;;18.40;52.20;;;;;;5045855;28;20157;-81
2022/01/09 07:59:08;;;;;;;4.32;2.63;;;18.50;51.90;;;;;;5039839;28;20226;-81
2022/01/09 08:01:33;;;;;;;3.38;2.63;;;18.50;51.80;;;;;;5040225;28;20232;-83
2022/01/09 08:04:00;;;;;;;3.25;2.08;;;18.50;51.90;;;;;;5039867;28;20281;-82
2022/01/09 08:06:26;;;;;;;8.18;3.00;;;18.50;51.90;;;;;;5056814;28;20552;-83
2022/01/09 08:08:52;;;;;;;4.93;2.80;;;18.60;51.90;;;;;;5058603;28;20568;-82
2022/01/09 08:11:18;;;;;;;4.22;2.58;;;18.60;52.00;;;;;;5040296;28;20158;-80
2022/01/09 08:13:44;;;;;;;5.32;2.60;;;18.60;51.90;;;;;;5043604;28;20646;-83
2022/01/09 08:16:10;;;;;;;4.10;2.38;;;18.60;51.60;;;;;;5060353;28;20184;-82
2022/01/09 08:18:35;;;;;;;3.58;2.20;;;18.60;52.00;;;;;;5075956;28;20281;-82
2022/01/09 08:21:01;;;;;;;4.35;2.50;;;18.70;51.70;;;;;;5055768;28;20193;-82
2022/01/09 08:23:27;;;;;;;4.68;2.35;;;18.70;51.80;;;;;;5057234;28;20166;-81
2022/01/09 08:25:52;;;;;;;2.55;2.10;;;18.70;51.90;;;;;;5040666;28;20176;-83
2022/01/09 08:28:18;;;;;;;3.30;2.40;;;18.70;51.90;;;;;;5040752;28;20623;-81
2022/01/09 08:30:44;;;;;;;3.17;2.40;;;18.70;51.70;;;;;;5057207;28;20238;-83
2022/01/09 08:33:09;;;;;;;4.10;2.47;;;18.80;51.60;;;;;;5056683;28;20587;-82
2022/01/09 08:35:35;;;;;;;3.40;2.20;;;18.80;51.50;;;;;;5056406;28;20162;-83
2022/01/09 08:38:01;;;;;;;2.63;2.22;;;18.80;51.10;;;;;;5056870;28;20249;-81
2022/01/09 08:40:26;;;;;;;3.80;2.10;;;18.80;51.20;;;;;;5056310;28;20258;-81
2022/01/09 08:42:53;;;;;;;4.85;2.50;;;18.90;51.30;;;;;;5072848;28;20546;-83
2022/01/09 08:45:19;;;;;;;3.85;2.60;;;18.80;51.20;;;;;;5055986;28;20287;-81
2022/01/09 08:47:45;;;;;;;3.72;2.38;;;18.80;51.10;;;;;;5042218;28;20154;-83
2022/01/09 08:50:11;;;;;;;5.38;2.55;;;18.80;51.10;;;;;;5040035;28;20542;-83
2022/01/09 08:52:37;;;;;;;3.42;2.47;;;18.80;51.10;;;;;;5039856;28;20205;-83
2022/01/09 08:55:04;;;;;;;3.30;2.42;;;18.90;51.10;;;;;;5039247;28;20161;-81
2022/01/09 08:57:29;;;;;;;2.78;2.20;;;18.90;51.10;;;;;;5072339;28;20722;-83
2022/01/09 08:59:55;;;;;;;4.88;2.20;;;18.80;51.20;;;;;;5039277;28;20241;-82
2022/01/09 09:02:21;;;;;;;4.35;2.40;;;18.90;51.80;;;;;;5055661;28;20223;-82
2022/01/09 09:04:46;;;;;;;2.88;2.47;;;18.90;51.00;;;;;;5048861;28;20187;-84
2022/01/09 09:07:14;;;;;;;3.00;2.30;;;18.90;51.10;;;;;;5079989;28;20239;-84
2022/01/09 09:09:40;;;;;;;4.53;2.33;;;18.90;51.10;;;;;;5097347;28;20227;-83
2022/01/09 09:12:06;;;;;;;4.85;2.28;;;18.90;51.10;;;;;;5097152;28;20248;-84
2022/01/09 09:14:31;;;;;;;4.25;2.40;;;18.90;50.90;;;;;;5079920;28;20664;-83
2022/01/09 09:16:57;;;;;;;2.95;2.13;;;19.00;51.30;;;;;;5080448;28;20167;-83
2022/01/09 09:19:23;;;;;;;7.18;2.20;;;18.90;51.00;;;;;;5097012;28;20236;-82
2022/01/09 09:21:49;;;;;;;2.88;2.50;;;19.00;51.60;;;;;;5115770;28;20176;-82
2022/01/09 09:24:15;;;;;;;4.85;2.13;;;18.90;51.20;;;;;;5083832;28;20218;-82
2022/01/09 09:26:41;;;;;;;7.45;2.33;;;19.00;51.50;;;;;;5100636;28;20545;-84
2022/01/09 09:29:08;;;;;;;6.32;2.60;;;19.00;51.50;;;;;;5084567;28;20164;-82
2022/01/09 09:31:33;;;;;;;6.15;2.65;;;19.00;51.40;;;;;;5101230;28;20230;-82
2022/01/09 09:33:59;;;;;;;5.90;2.30;;;19.10;51.30;;;;;;5082221;28;20152;-83
2022/01/09 09:36:25;;;;;;;6.38;2.35;;;19.10;51.40;;;;;;5079943;28;20171;-83
2022/01/09 09:38:51;;;;;;;4.75;2.40;;;19.10;51.40;;;;;;5080058;28;20157;-83
2022/01/09 09:41:17;;;;;;;3.47;2.25;;;19.10;51.10;;;;;;5097925;28;20208;-83
2022/01/09 09:43:43;;;;;;;7.05;2.78;;;19.10;50.90;;;;;;5081306;28;20572;-83
2022/01/09 09:46:10;;;;;;;8.52;2.40;;;19.20;51.00;;;;;;5114906;28;20179;-83
2022/01/09 09:48:36;;;;;;;7.07;2.30;;;19.10;50.70;;;;;;5079877;28;20160;-82
2022/01/09 09:51:01;;;;;;;6.00;2.42;;;19.10;50.70;;;;;;5097397;28;20525;-84
2022/01/09 09:53:27;;;;;;;5.65;2.38;;;19.10;50.70;;;;;;5115549;28;20235;-83
2022/01/09 09:55:53;;;;;;;7.47;2.45;;;19.20;50.70;;;;;;5081489;28;20569;-83
2022/01/09 09:58:19;;;;;;;5.30;2.30;;;19.10;50.90;;;;;;5097187;28;20315;-84
2022/01/09 10:00:57;;;;;;;7.65;2.50;;;19.20;50.60;;;;;;5097082;28;20223;-84
2022/01/09 10:03:29;;;;;;;4.75;2.38;;;19.20;50.80;;;;;;5081253;28;20649;-84
2022/01/09 10:05:55;;;;;;;9.73;2.70;;;19.10;50.50;;;;;;5099156;28;20175;-83
2022/01/09 10:08:21;;;;;;;7.00;2.53;;;19.20;50.50;;;;;;5097733;28;20619;-84
2022/01/09 10:10:46;;;;;;;7.72;2.28;;;19.20;50.60;;;;;;5097298;28;20167;-84
2022/01/09 10:13:14;;;;;;;8.60;2.35;;;19.20;50.70;;;;;;5097852;28;20160;-84
2022/01/09 10:16:02;;;;;;;4.35;2.45;;;19.20;50.80;;;;;;5099949;28;20582;-84
2022/01/09 10:18:43;;;;;;;6.20;2.70;;;19.20;50.70;;;;;;5101591;28;20186;-84
2022/01/09 10:21:11;;;;;;;6.32;2.53;;;19.30;50.40;;;;;;5099211;28;20642;-84
2022/01/09 10:23:56;;;;;;;5.97;2.42;;;19.30;50.20;;;;;;5099986;28;20176;-84
2022/01/09 10:26:23;;;;;;;6.57;2.55;;;19.30;50.40;;;;;;5100780;28;20145;-84
2022/01/09 10:28:52;;;;;;;9.50;2.65;;;19.30;50.30;;;;;;5099983;28;20528;-83
2022/01/09 10:31:19;;;;;;;10.25;2.67;;;19.30;50.20;;;;;;5084400;28;20167;-83
2022/01/09 10:34:00;;;;;;;11.90;2.70;;;19.30;50.60;;;;;;5101897;28;20171;-82
2022/01/09 10:36:44;;;;;;;8.65;2.63;;;19.30;51.10;;;;;;5098235;28;20169;-83
2022/01/09 10:39:12;;;;;;;11.50;2.80;;;19.30;50.60;;;;;;5100637;28;20248;-86
2022/01/09 10:41:51;;;;;;;8.27;2.50;;;19.20;51.10;;;;;;5087659;28;20183;-85
2022/01/09 10:44:20;;;;;;;11.52;2.60;;;19.30;51.40;;;;;;5102768;28;20266;-83
2022/01/09 10:46:54;;;;;;;9.40;2.92;;;19.30;51.40;;;;;;5083405;28;20151;-85
2022/01/09 10:49:22;;;;;;;8.98;2.50;;;19.30;51.50;;;;;;5084507;28;20163;-84
2022/01/09 10:51:48;;;;;;;10.20;2.72;;;19.30;51.60;;;;;;5082480;28;20229;-84
2022/01/09 10:54:30;;;;;;;7.05;2.50;;;19.30;51.60;;;;;;5098693;28;20164;-84
2022/01/09 10:57:10;;;;;;;9.77;2.70;;;19.30;51.60;;;;;;5094216;28;20216;-84
2022/01/09 10:59:36;;;;;;;5.78;2.33;;;19.30;51.50;;;;;;5094842;28;20210;-83
2022/01/09 11:02:02;;;;;;;10.93;2.88;;;19.30;51.50;;;;;;5111629;28;20223;-84
2022/01/09 11:04:27;;;;;;;12.88;3.00;;;19.30;51.40;;;;;;5113432;28;20214;-83
2022/01/09 11:06:54;;;;;;;12.75;2.63;;;19.30;51.60;;;;;;5079384;28;20651;-85
2022/01/09 11:09:21;;;;;;;10.25;2.83;;;19.20;51.90;;;;;;5077130;28;20634;-83
2022/01/09 11:11:47;;;;;;;7.47;2.38;;;19.30;51.60;;;;;;5064647;28;20188;-81
2022/01/09 11:14:18;;;;;;;7.45;2.47;;;19.40;51.40;;;;;;5046370;28;20313;-81
2022/01/09 11:16:51;;;;;;;7.22;2.60;;;19.30;51.70;;;;;;5067636;28;20168;-83
2022/01/09 11:19:18;;;;;;;5.45;2.50;;;19.30;51.80;;;;;;5051565;28;20180;-83
2022/01/09 11:22:07;;;;;;;8.90;2.75;;;19.30;52.00;;;;;;5064791;28;20319;-82
2022/01/09 11:24:59;;;;;;;7.70;2.42;;;19.30;52.10;;;;;;5063032;28;20207;-83
2022/01/09 11:27:36;;;;;;;4.85;2.42;;;19.30;51.80;;;;;;5095342;28;20153;-82
2022/01/09 11:30:32;;;;;;;12.10;2.80;;;19.30;52.00;;;;;;5064443;28;20208;-82
2022/01/09 11:33:31;;;;;;;9.30;2.60;;;19.30;52.00;;;;;;5064841;28;20164;-81
2022/01/09 11:36:06;;;;;;;7.07;2.88;;;19.30;52.40;;;;;;5081290;28;20184;-83
2022/01/09 11:38:50;;;;;;;12.73;2.90;;;19.30;52.30;;;;;;5060323;28;20573;-83
2022/01/09 11:41:21;;;;;;;6.95;2.53;;;19.30;52.30;;;;;;5065602;28;20596;-83
2022/01/09 11:44:09;;;;;;;7.53;2.53;;;19.30;52.20;;;;;;5097449;28;20178;-83
2022/01/09 11:47:00;;;;;;;10.80;2.70;;;19.30;52.00;;;;;;5086706;28;20167;-83
2022/01/09 11:49:26;;;;;;;5.47;2.33;;;19.30;52.50;;;;;;5100732;28;20198;-83
2022/01/09 11:51:55;;;;;;;10.57;2.70;;;19.30;52.50;;;;;;5097377;28;20183;-81
2022/01/09 11:54:20;;;;;;;3.25;2.63;;;19.30;52.60;;;;;;5097159;28;20164;-81
2022/01/09 11:56:55;;;;;;;8.57;2.45;;;19.30;52.90;;;;;;5104859;28;20160;-81
2022/01/09 11:59:31;;;;;;;5.20;2.65;;;19.30;52.30;;;;;;5111936;28;20191;-81
2022/01/09 12:02:02;;;;;;;5.35;2.35;;;19.30;52.50;;;;;;5119392;28;20215;-85
2022/01/09 12:04:51;;;;;;;8.15;2.78;;;19.30;52.00;;;;;;5102524;28;20164;-83
2022/01/09 12:07:19;;;;;;;6.45;2.53;;;19.30;52.50;;;;;;5119707;28;20510;-85
2022/01/09 12:09:47;;;;;;;6.68;2.50;;;19.30;52.90;;;;;;5119197;28;20167;-82
2022/01/09 12:12:16;;;;;;;4.30;2.40;;;19.30;52.30;;;;;;5137030;27;20168;-84
2022/01/09 12:14:56;;;;;;;6.75;2.60;;;19.40;52.60;;;;;;5123703;28;20168;-82
2022/01/09 12:17:41;;;;;;;6.80;3.00;;;19.50;52.50;;;;;;5122700;28;20249;-80
2022/01/09 12:20:21;;;;;;;4.45;2.40;;;19.40;52.60;;;;;;5120101;28;20519;-82
2022/01/09 12:22:49;;;;;;;4.90;2.50;;;19.40;52.30;;;;;;5120362;28;20187;-82
2022/01/09 12:25:38;;;;;;;6.70;2.70;;;19.40;52.50;;;;;;5119666;28;20184;-83
2022/01/09 12:28:05;;;;;;;10.00;2.88;;;19.40;52.40;;;;;;5136590;27;20202;-82
2022/01/09 12:30:55;;;;;;;5.00;2.33;;;19.40;52.60;;;;;;5116202;28;20221;-82
2022/01/09 12:33:45;;;;;;;5.95;2.75;;;19.40;52.60;;;;;;5135301;27;20626;-83
2022/01/09 12:36:13;;;;;;;7.63;2.78;;;19.40;52.20;;;;;;5134950;27;20164;-83
2022/01/09 12:38:42;;;;;;;5.15;2.50;;;19.40;52.30;;;;;;5114983;28;20167;-82
2022/01/09 12:41:09;;;;;;;5.60;2.40;;;19.40;53.20;;;;;;5116488;28;20248;-82
2022/01/09 12:43:35;;;;;;;6.63;2.67;;;19.40;52.40;;;;;;5115197;28;20214;-82
2022/01/09 12:46:11;;;;;;;6.80;2.45;;;19.40;52.40;;;;;;5115627;27;20171;-83
2022/01/09 12:48:37;;;;;;;7.10;2.53;;;19.40;51.70;;;;;;5114264;28;20550;-82